sensor_id;sensor_type;location;lat;lon;timestamp;P1;durP1;ratioP1;P2;durP2;ratioP2
26977;SDS011;56314;48.088;11.642;2024-01-16T00:00:50;3.13;;;2.30;;
26977;SDS011;56314;48.088;11.642;2024-01-16T00:03:15;3.60;;;2.33;;
26977;SDS011;56314;48.088;11.642;2024-01-16T00:05:41;4.28;;;2.28;;
26977;SDS011;56314;48.088;11.642;2024-01-16T00:08:06;4.78;;;2.08;;
26977;SDS011;56314;48.088;11.642;2024-01-16T00:10:31;6.22;;;2.55;;
26977;SDS011;56314;48.088;11.642;2024-01-16T00:12:57;4.68;;;2.47;;
26977;SDS011;56314;48.088;11.642;2024-01-16T00:15:22;2.65;;;2.17;;
26977;SDS011;56314;48.088;11.642;2024-01-16T00:17:48;6.45;;;2.30;;
26977;SDS011;56314;48.088;11.642;2024-01-16T00:20:14;3.15;;;2.10;;
26977;SDS011;56314;48.088;11.642;2024-01-16T00:22:39;7.05;;;2.28;;
26977;SDS011;56314;48.088;11.642;2024-01-16T00:25:05;3.33;;;2.10;;
26977;SDS011;56314;48.088;11.642;2024-01-16T00:27:31;5.57;;;2.50;;
26977;SDS011;56314;48.088;11.642;2024-01-16T00:29:56;4.72;;;2.40;;
26977;SDS011;56314;48.088;11.642;2024-01-16T00:32:21;5.20;;;2.58;;
26977;SDS011;56314;48.088;11.642;2024-01-16T00:34:47;3.63;;;2.70;;
26977;SDS011;56314;48.088;11.642;2024-01-16T00:37:12;4.78;;;1.95;;
26977;SDS011;56314;48.088;11.642;2024-01-16T00:39:38;5.18;;;2.75;;
26977;SDS011;56314;48.088;11.642;2024-01-16T00:42:03;5.45;;;2.67;;
26977;SDS011;56314;48.088;11.642;2024-01-16T00:44:29;9.68;;;2.53;;
26977;SDS011;56314;48.088;11.642;2024-01-16T00:46:54;4.25;;;2.17;;
26977;SDS011;56314;48.088;11.642;2024-01-16T00:49:19;4.13;;;2.20;;
26977;SDS011;56314;48.088;11.642;2024-01-16T00:51:45;6.30;;;2.17;;
26977;SDS011;56314;48.088;11.642;2024-01-16T00:54:10;5.13;;;2.70;;
26977;SDS011;56314;48.088;11.642;2024-01-16T00:56:36;5.75;;;2.28;;
26977;SDS011;56314;48.088;11.642;2024-01-16T00:59:02;5.07;;;2.08;;
26977;SDS011;56314;48.088;11.642;2024-01-16T01:01:27;4.47;;;2.45;;
26977;SDS011;56314;48.088;11.642;2024-01-16T01:03:53;5.68;;;2.53;;
26977;SDS011;56314;48.088;11.642;2024-01-16T01:06:18;2.65;;;2.20;;
26977;SDS011;56314;48.088;11.642;2024-01-16T01:08:44;4.38;;;2.17;;
26977;SDS011;56314;48.088;11.642;2024-01-16T01:11:09;4.20;;;2.30;;
26977;SDS011;56314;48.088;11.642;2024-01-16T01:13:35;4.90;;;2.13;;
26977;SDS011;56314;48.088;11.642;2024-01-16T01:16:00;3.35;;;2.10;;
26977;SDS011;56314;48.088;11.642;2024-01-16T01:18:25;2.13;;;1.80;;
26977;SDS011;56314;48.088;11.642;2024-01-16T01:20:51;6.38;;;2.20;;
26977;SDS011;56314;48.088;11.642;2024-01-16T01:23:16;3.22;;;1.98;;
26977;SDS011;56314;48.088;11.642;2024-01-16T01:25:42;4.05;;;2.10;;
26977;SDS011;56314;48.088;11.642;2024-01-16T01:28:07;2.30;;;1.60;;
26977;SDS011;56314;48.088;11.642;2024-01-16T01:30:33;2.47;;;1.80;;
26977;SDS011;56314;48.088;11.642;2024-01-16T01:32:59;2.45;;;1.92;;
26977;SDS011;56314;48.088;11.642;2024-01-16T01:35:24;3.28;;;1.95;;
26977;SDS011;56314;48.088;11.642;2024-01-16T01:37:49;5.70;;;2.20;;
26977;SDS011;56314;48.088;11.642;2024-01-16T01:40:15;3.55;;;2.22;;
26977;SDS011;56314;48.088;11.642;2024-01-16T01:42:41;4.00;;;2.35;;
26977;SDS011;56314;48.088;11.642;2024-01-16T01:45:08;2.15;;;1.80;;
26977;SDS011;56314;48.088;11.642;2024-01-16T01:47:34;6.55;;;2.40;;
26977;SDS011;56314;48.088;11.642;2024-01-16T01:50:01;2.53;;;1.83;;
26977;SDS011;56314;48.088;11.642;2024-01-16T01:52:28;4.00;;;1.90;;
26977;SDS011;56314;48.088;11.642;2024-01-16T01:54:55;2.80;;;1.75;;
26977;SDS011;56314;48.088;11.642;2024-01-16T01:57:21;3.60;;;1.52;;
26977;SDS011;56314;48.088;11.642;2024-01-16T01:59:47;4.35;;;2.33;;
26977;SDS011;56314;48.088;11.642;2024-01-16T02:02:12;4.95;;;2.50;;
26977;SDS011;56314;48.088;11.642;2024-01-16T02:04:38;2.70;;;1.85;;
26977;SDS011;56314;48.088;11.642;2024-01-16T02:07:05;2.30;;;1.90;;
26977;SDS011;56314;48.088;11.642;2024-01-16T02:09:31;5.55;;;1.77;;
26977;SDS011;56314;48.088;11.642;2024-01-16T02:11:56;2.60;;;1.60;;
26977;SDS011;56314;48.088;11.642;2024-01-16T02:14:22;3.78;;;1.90;;
26977;SDS011;56314;48.088;11.642;2024-01-16T02:16:47;2.33;;;1.63;;
26977;SDS011;56314;48.088;11.642;2024-01-16T02:19:12;6.35;;;2.58;;
26977;SDS011;56314;48.088;11.642;2024-01-16T02:21:47;4.07;;;1.83;;
26977;SDS011;56314;48.088;11.642;2024-01-16T02:24:14;3.65;;;2.03;;
26977;SDS011;56314;48.088;11.642;2024-01-16T02:26:40;3.17;;;2.10;;
26977;SDS011;56314;48.088;11.642;2024-01-16T02:29:06;4.22;;;2.08;;
26977;SDS011;56314;48.088;11.642;2024-01-16T02:31:32;4.97;;;1.80;;
26977;SDS011;56314;48.088;11.642;2024-01-16T02:33:58;2.92;;;1.73;;
26977;SDS011;56314;48.088;11.642;2024-01-16T02:36:24;3.75;;;2.00;;
26977;SDS011;56314;48.088;11.642;2024-01-16T02:38:50;4.18;;;2.22;;
26977;SDS011;56314;48.088;11.642;2024-01-16T02:41:16;4.90;;;2.22;;
26977;SDS011;56314;48.088;11.642;2024-01-16T02:43:42;5.85;;;2.40;;
26977;SDS011;56314;48.088;11.642;2024-01-16T02:46:08;3.80;;;2.45;;
26977;SDS011;56314;48.088;11.642;2024-01-16T02:48:36;4.35;;;2.10;;
26977;SDS011;56314;48.088;11.642;2024-01-16T02:51:02;3.70;;;1.70;;
26977;SDS011;56314;48.088;11.642;2024-01-16T02:53:31;5.82;;;2.13;;
26977;SDS011;56314;48.088;11.642;2024-01-16T02:55:56;3.17;;;2.10;;
26977;SDS011;56314;48.088;11.642;2024-01-16T02:58:24;6.40;;;2.42;;
26977;SDS011;56314;48.088;11.642;2024-01-16T03:00:50;4.32;;;2.00;;
26977;SDS011;56314;48.088;11.642;2024-01-16T03:03:15;3.97;;;1.92;;
26977;SDS011;56314;48.088;11.642;2024-01-16T03:05:40;3.03;;;1.98;;
26977;SDS011;56314;48.088;11.642;2024-01-16T03:08:06;4.35;;;2.22;;
26977;SDS011;56314;48.088;11.642;2024-01-16T03:10:32;3.65;;;1.83;;
26977;SDS011;56314;48.088;11.642;2024-01-16T03:12:57;2.30;;;2.10;;
26977;SDS011;56314;48.088;11.642;2024-01-16T03:15:23;4.55;;;2.17;;
26977;SDS011;56314;48.088;11.642;2024-01-16T03:17:48;3.65;;;1.83;;
26977;SDS011;56314;48.088;11.642;2024-01-16T03:20:14;3.80;;;2.30;;
26977;SDS011;56314;48.088;11.642;2024-01-16T03:22:40;4.90;;;2.70;;
26977;SDS011;56314;48.088;11.642;2024-01-16T03:25:08;4.40;;;2.30;;
26977;SDS011;56314;48.088;11.642;2024-01-16T03:27:33;5.95;;;2.08;;
26977;SDS011;56314;48.088;11.642;2024-01-16T03:29:59;2.75;;;1.88;;
26977;SDS011;56314;48.088;11.642;2024-01-16T03:32:26;4.53;;;2.53;;
26977;SDS011;56314;48.088;11.642;2024-01-16T03:34:51;2.30;;;1.80;;
26977;SDS011;56314;48.088;11.642;2024-01-16T03:37:17;5.05;;;2.33;;
26977;SDS011;56314;48.088;11.642;2024-01-16T03:39:42;3.05;;;2.15;;
26977;SDS011;56314;48.088;11.642;2024-01-16T03:42:09;3.28;;;1.70;;
26977;SDS011;56314;48.088;11.642;2024-01-16T03:44:38;4.25;;;2.00;;
26977;SDS011;56314;48.088;11.642;2024-01-16T03:47:04;4.57;;;2.17;;
26977;SDS011;56314;48.088;11.642;2024-01-16T03:49:29;6.07;;;1.73;;
26977;SDS011;56314;48.088;11.642;2024-01-16T03:51:55;3.58;;;1.98;;
26977;SDS011;56314;48.088;11.642;2024-01-16T03:54:20;4.22;;;2.33;;
26977;SDS011;56314;48.088;11.642;2024-01-16T03:56:45;3.38;;;2.05;;
26977;SDS011;56314;48.088;11.642;2024-01-16T03:59:11;2.33;;;1.90;;
26977;SDS011;56314;48.088;11.642;2024-01-16T04:01:37;3.63;;;2.28;;
26977;SDS011;56314;48.088;11.642;2024-01-16T04:04:02;6.75;;;2.65;;
26977;SDS011;56314;48.088;11.642;2024-01-16T04:06:31;5.07;;;1.95;;
26977;SDS011;56314;48.088;11.642;2024-01-16T04:08:57;3.13;;;2.40;;
26977;SDS011;56314;48.088;11.642;2024-01-16T04:11:23;4.13;;;2.25;;
26977;SDS011;56314;48.088;11.642;2024-01-16T04:13:48;3.30;;;1.67;;
26977;SDS011;56314;48.088;11.642;2024-01-16T04:16:15;4.68;;;2.53;;
26977;SDS011;56314;48.088;11.642;2024-01-16T04:18:41;4.35;;;2.50;;
26977;SDS011;56314;48.088;11.642;2024-01-16T04:21:07;3.65;;;2.08;;
26977;SDS011;56314;48.088;11.642;2024-01-16T04:23:33;4.15;;;2.33;;
26977;SDS011;56314;48.088;11.642;2024-01-16T04:25:58;3.58;;;2.08;;
26977;SDS011;56314;48.088;11.642;2024-01-16T04:28:24;3.88;;;1.70;;
26977;SDS011;56314;48.088;11.642;2024-01-16T04:30:49;7.22;;;2.65;;
26977;SDS011;56314;48.088;11.642;2024-01-16T04:33:15;4.10;;;2.50;;
26977;SDS011;56314;48.088;11.642;2024-01-16T04:35:41;5.88;;;2.25;;
26977;SDS011;56314;48.088;11.642;2024-01-16T04:38:06;3.80;;;2.08;;
26977;SDS011;56314;48.088;11.642;2024-01-16T04:40:32;5.63;;;2.30;;
26977;SDS011;56314;48.088;11.642;2024-01-16T04:42:58;5.85;;;2.20;;
26977;SDS011;56314;48.088;11.642;2024-01-16T04:45:24;4.70;;;2.30;;
26977;SDS011;56314;48.088;11.642;2024-01-16T04:47:49;7.10;;;2.08;;
26977;SDS011;56314;48.088;11.642;2024-01-16T04:50:15;2.65;;;1.98;;
26977;SDS011;56314;48.088;11.642;2024-01-16T04:52:40;4.97;;;2.10;;
26977;SDS011;56314;48.088;11.642;2024-01-16T04:55:06;5.10;;;1.90;;
26977;SDS011;56314;48.088;11.642;2024-01-16T04:57:32;4.90;;;2.63;;
26977;SDS011;56314;48.088;11.642;2024-01-16T04:59:58;5.75;;;2.05;;
26977;SDS011;56314;48.088;11.642;2024-01-16T05:02:23;4.70;;;2.47;;
26977;SDS011;56314;48.088;11.642;2024-01-16T05:04:49;3.58;;;2.08;;
26977;SDS011;56314;48.088;11.642;2024-01-16T05:07:16;5.45;;;2.42;;
26977;SDS011;56314;48.088;11.642;2024-01-16T05:09:45;6.22;;;2.30;;
26977;SDS011;56314;48.088;11.642;2024-01-16T05:12:11;3.63;;;2.33;;
26977;SDS011;56314;48.088;11.642;2024-01-16T05:14:36;5.07;;;2.22;;
26977;SDS011;56314;48.088;11.642;2024-01-16T05:17:02;6.97;;;2.72;;
26977;SDS011;56314;48.088;11.642;2024-01-16T05:19:27;3.65;;;2.00;;
26977;SDS011;56314;48.088;11.642;2024-01-16T05:21:53;5.63;;;2.63;;
26977;SDS011;56314;48.088;11.642;2024-01-16T05:24:18;6.70;;;2.63;;
26977;SDS011;56314;48.088;11.642;2024-01-16T05:26:43;5.90;;;3.03;;
26977;SDS011;56314;48.088;11.642;2024-01-16T05:29:09;3.92;;;2.47;;
26977;SDS011;56314;48.088;11.642;2024-01-16T05:31:39;4.85;;;2.08;;
26977;SDS011;56314;48.088;11.642;2024-01-16T05:34:08;7.07;;;2.22;;
26977;SDS011;56314;48.088;11.642;2024-01-16T05:36:34;7.00;;;2.40;;
26977;SDS011;56314;48.088;11.642;2024-01-16T05:38:59;2.75;;;2.10;;
26977;SDS011;56314;48.088;11.642;2024-01-16T05:41:25;6.60;;;2.72;;
26977;SDS011;56314;48.088;11.642;2024-01-16T05:43:50;4.82;;;2.88;;
26977;SDS011;56314;48.088;11.642;2024-01-16T05:46:15;4.40;;;2.65;;
26977;SDS011;56314;48.088;11.642;2024-01-16T05:48:41;3.88;;;2.45;;
26977;SDS011;56314;48.088;11.642;2024-01-16T05:51:06;7.40;;;3.30;;
26977;SDS011;56314;48.088;11.642;2024-01-16T05:53:31;11.93;;;3.38;;
26977;SDS011;56314;48.088;11.642;2024-01-16T05:55:57;4.93;;;2.67;;
26977;SDS011;56314;48.088;11.642;2024-01-16T05:58:22;5.38;;;2.88;;
26977;SDS011;56314;48.088;11.642;2024-01-16T06:00:47;4.35;;;2.78;;
26977;SDS011;56314;48.088;11.642;2024-01-16T06:03:13;4.97;;;2.92;;
26977;SDS011;56314;48.088;11.642;2024-01-16T06:05:38;6.07;;;2.33;;
26977;SDS011;56314;48.088;11.642;2024-01-16T06:08:04;6.85;;;2.38;;
26977;SDS011;56314;48.088;11.642;2024-01-16T06:10:29;6.53;;;2.63;;
26977;SDS011;56314;48.088;11.642;2024-01-16T06:12:55;5.65;;;2.40;;
26977;SDS011;56314;48.088;11.642;2024-01-16T06:15:20;5.25;;;2.53;;
26977;SDS011;56314;48.088;11.642;2024-01-16T06:17:45;5.65;;;2.72;;
26977;SDS011;56314;48.088;11.642;2024-01-16T06:20:11;4.10;;;2.80;;
26977;SDS011;56314;48.088;11.642;2024-01-16T06:22:36;6.60;;;3.08;;
26977;SDS011;56314;48.088;11.642;2024-01-16T06:25:01;7.22;;;3.58;;
26977;SDS011;56314;48.088;11.642;2024-01-16T06:27:27;8.77;;;3.15;;
26977;SDS011;56314;48.088;11.642;2024-01-16T06:29:52;13.73;;;3.25;;
26977;SDS011;56314;48.088;11.642;2024-01-16T06:32:18;5.53;;;2.55;;
26977;SDS011;56314;48.088;11.642;2024-01-16T06:34:44;4.80;;;2.42;;
26977;SDS011;56314;48.088;11.642;2024-01-16T06:37:09;5.55;;;3.00;;
26977;SDS011;56314;48.088;11.642;2024-01-16T06:39:35;8.93;;;3.28;;
26977;SDS011;56314;48.088;11.642;2024-01-16T06:42:01;4.93;;;2.70;;
26977;SDS011;56314;48.088;11.642;2024-01-16T06:44:29;8.73;;;3.03;;
26977;SDS011;56314;48.088;11.642;2024-01-16T06:46:54;5.32;;;2.78;;
26977;SDS011;56314;48.088;11.642;2024-01-16T06:49:20;4.80;;;2.35;;
26977;SDS011;56314;48.088;11.642;2024-01-16T06:51:45;6.13;;;2.63;;
26977;SDS011;56314;48.088;11.642;2024-01-16T06:54:10;8.73;;;2.78;;
26977;SDS011;56314;48.088;11.642;2024-01-16T06:56:36;5.47;;;2.65;;
26977;SDS011;56314;48.088;11.642;2024-01-16T06:59:01;6.28;;;2.80;;
26977;SDS011;56314;48.088;11.642;2024-01-16T07:01:26;8.40;;;3.00;;
26977;SDS011;56314;48.088;11.642;2024-01-16T07:03:52;7.18;;;3.38;;
26977;SDS011;56314;48.088;11.642;2024-01-16T07:06:17;6.22;;;3.08;;
26977;SDS011;56314;48.088;11.642;2024-01-16T07:08:43;9.10;;;3.35;;
26977;SDS011;56314;48.088;11.642;2024-01-16T07:11:08;6.00;;;2.83;;
26977;SDS011;56314;48.088;11.642;2024-01-16T07:13:38;6.70;;;2.58;;
26977;SDS011;56314;48.088;11.642;2024-01-16T07:16:03;9.65;;;2.80;;
26977;SDS011;56314;48.088;11.642;2024-01-16T07:18:29;8.20;;;3.30;;
26977;SDS011;56314;48.088;11.642;2024-01-16T07:20:54;4.60;;;2.17;;
26977;SDS011;56314;48.088;11.642;2024-01-16T07:23:20;5.75;;;3.10;;
26977;SDS011;56314;48.088;11.642;2024-01-16T07:25:45;7.30;;;3.38;;
26977;SDS011;56314;48.088;11.642;2024-01-16T07:28:10;9.57;;;3.33;;
26977;SDS011;56314;48.088;11.642;2024-01-16T07:30:36;6.28;;;3.40;;
26977;SDS011;56314;48.088;11.642;2024-01-16T07:33:02;6.18;;;2.85;;
26977;SDS011;56314;48.088;11.642;2024-01-16T07:35:28;6.43;;;3.15;;
26977;SDS011;56314;48.088;11.642;2024-01-16T07:37:53;9.00;;;3.63;;
26977;SDS011;56314;48.088;11.642;2024-01-16T07:40:19;4.93;;;2.97;;
26977;SDS011;56314;48.088;11.642;2024-01-16T07:42:44;7.00;;;3.42;;
26977;SDS011;56314;48.088;11.642;2024-01-16T07:45:09;8.90;;;3.45;;
26977;SDS011;56314;48.088;11.642;2024-01-16T07:47:35;4.60;;;2.75;;
26977;SDS011;56314;48.088;11.642;2024-01-16T07:50:01;9.52;;;3.92;;
26977;SDS011;56314;48.088;11.642;2024-01-16T07:52:27;4.75;;;3.30;;
26977;SDS011;56314;48.088;11.642;2024-01-16T07:54:53;6.30;;;3.53;;
26977;SDS011;56314;48.088;11.642;2024-01-16T07:57:18;6.22;;;3.65;;
26977;SDS011;56314;48.088;11.642;2024-01-16T07:59:44;4.55;;;3.03;;
26977;SDS011;56314;48.088;11.642;2024-01-16T08:02:09;5.80;;;3.10;;
26977;SDS011;56314;48.088;11.642;2024-01-16T08:04:34;10.15;;;3.83;;
26977;SDS011;56314;48.088;11.642;2024-01-16T08:07:00;6.88;;;3.60;;
26977;SDS011;56314;48.088;11.642;2024-01-16T08:09:26;8.98;;;3.47;;
26977;SDS011;56314;48.088;11.642;2024-01-16T08:11:51;5.80;;;3.55;;
26977;SDS011;56314;48.088;11.642;2024-01-16T08:14:16;7.82;;;3.88;;
26977;SDS011;56314;48.088;11.642;2024-01-16T08:16:42;7.20;;;3.53;;
26977;SDS011;56314;48.088;11.642;2024-01-16T08:19:07;6.93;;;3.38;;
26977;SDS011;56314;48.088;11.642;2024-01-16T08:21:32;9.32;;;3.83;;
26977;SDS011;56314;48.088;11.642;2024-01-16T08:23:58;9.88;;;3.58;;
26977;SDS011;56314;48.088;11.642;2024-01-16T08:26:23;7.18;;;3.60;;
26977;SDS011;56314;48.088;11.642;2024-01-16T08:28:49;7.57;;;3.78;;
26977;SDS011;56314;48.088;11.642;2024-01-16T08:31:16;8.32;;;4.03;;
26977;SDS011;56314;48.088;11.642;2024-01-16T08:33:43;8.07;;;4.05;;
26977;SDS011;56314;48.088;11.642;2024-01-16T08:36:08;8.82;;;3.90;;
26977;SDS011;56314;48.088;11.642;2024-01-16T08:38:34;10.20;;;3.80;;
26977;SDS011;56314;48.088;11.642;2024-01-16T08:40:59;7.18;;;3.88;;
26977;SDS011;56314;48.088;11.642;2024-01-16T08:43:25;11.95;;;3.65;;
26977;SDS011;56314;48.088;11.642;2024-01-16T08:45:50;9.60;;;4.07;;
26977;SDS011;56314;48.088;11.642;2024-01-16T08:48:15;14.77;;;3.95;;
26977;SDS011;56314;48.088;11.642;2024-01-16T08:50:41;9.88;;;3.95;;
26977;SDS011;56314;48.088;11.642;2024-01-16T08:53:07;7.57;;;3.70;;
26977;SDS011;56314;48.088;11.642;2024-01-16T08:55:32;7.53;;;3.90;;
26977;SDS011;56314;48.088;11.642;2024-01-16T08:57:58;9.32;;;3.97;;
26977;SDS011;56314;48.088;11.642;2024-01-16T09:00:23;11.82;;;3.92;;
26977;SDS011;56314;48.088;11.642;2024-01-16T09:02:56;9.48;;;3.70;;
26977;SDS011;56314;48.088;11.642;2024-01-16T09:05:22;12.07;;;4.32;;
26977;SDS011;56314;48.088;11.642;2024-01-16T09:07:51;6.75;;;4.00;;
26977;SDS011;56314;48.088;11.642;2024-01-16T09:10:17;7.68;;;4.20;;
26977;SDS011;56314;48.088;11.642;2024-01-16T09:12:43;8.50;;;4.35;;
26977;SDS011;56314;48.088;11.642;2024-01-16T09:15:09;11.32;;;3.97;;
26977;SDS011;56314;48.088;11.642;2024-01-16T09:17:35;14.27;;;4.70;;
26977;SDS011;56314;48.088;11.642;2024-01-16T09:20:00;9.35;;;4.10;;
26977;SDS011;56314;48.088;11.642;2024-01-16T09:22:26;7.68;;;4.15;;
26977;SDS011;56314;48.088;11.642;2024-01-16T09:24:52;7.70;;;3.90;;
26977;SDS011;56314;48.088;11.642;2024-01-16T09:27:17;8.38;;;3.47;;
26977;SDS011;56314;48.088;11.642;2024-01-16T09:29:43;9.40;;;3.75;;
26977;SDS011;56314;48.088;11.642;2024-01-16T09:32:08;14.73;;;4.53;;
26977;SDS011;56314;48.088;11.642;2024-01-16T09:34:34;7.43;;;3.45;;
26977;SDS011;56314;48.088;11.642;2024-01-16T09:36:59;9.75;;;3.92;;
26977;SDS011;56314;48.088;11.642;2024-01-16T09:39:27;7.57;;;3.58;;
26977;SDS011;56314;48.088;11.642;2024-01-16T09:41:52;8.00;;;4.30;;
26977;SDS011;56314;48.088;11.642;2024-01-16T09:44:18;7.32;;;3.95;;
26977;SDS011;56314;48.088;11.642;2024-01-16T09:46:44;8.80;;;3.83;;
26977;SDS011;56314;48.088;11.642;2024-01-16T09:49:14;9.43;;;4.20;;
26977;SDS011;56314;48.088;11.642;2024-01-16T09:51:42;6.93;;;3.17;;
26977;SDS011;56314;48.088;11.642;2024-01-16T09:54:08;5.00;;;3.15;;
26977;SDS011;56314;48.088;11.642;2024-01-16T09:56:34;7.47;;;3.50;;
26977;SDS011;56314;48.088;11.642;2024-01-16T09:59:05;7.88;;;3.13;;
26977;SDS011;56314;48.088;11.642;2024-01-16T10:01:31;5.68;;;3.15;;
26977;SDS011;56314;48.088;11.642;2024-01-16T10:03:58;8.32;;;3.50;;
26977;SDS011;56314;48.088;11.642;2024-01-16T10:06:23;7.75;;;3.88;;
26977;SDS011;56314;48.088;11.642;2024-01-16T10:08:51;9.00;;;3.38;;
26977;SDS011;56314;48.088;11.642;2024-01-16T10:11:17;9.80;;;3.33;;
26977;SDS011;56314;48.088;11.642;2024-01-16T10:13:44;11.80;;;4.05;;
26977;SDS011;56314;48.088;11.642;2024-01-16T10:16:09;5.00;;;3.15;;
26977;SDS011;56314;48.088;11.642;2024-01-16T10:18:35;10.20;;;3.80;;
26977;SDS011;56314;48.088;11.642;2024-01-16T10:21:02;7.50;;;3.90;;
26977;SDS011;56314;48.088;11.642;2024-01-16T10:23:30;9.15;;;3.90;;
26977;SDS011;56314;48.088;11.642;2024-01-16T10:31:04;5.93;;;2.85;;
26977;SDS011;56314;48.088;11.642;2024-01-16T10:33:31;7.80;;;3.50;;
26977;SDS011;56314;48.088;11.642;2024-01-16T10:36:15;5.38;;;3.05;;
26977;SDS011;56314;48.088;11.642;2024-01-16T10:38:43;3.85;;;2.90;;
26977;SDS011;56314;48.088;11.642;2024-01-16T10:41:10;4.50;;;2.83;;
26977;SDS011;56314;48.088;11.642;2024-01-16T10:43:42;5.07;;;2.83;;
26977;SDS011;56314;48.088;11.642;2024-01-16T10:48:38;7.53;;;2.88;;
26977;SDS011;56314;48.088;11.642;2024-01-16T10:51:06;5.63;;;2.80;;
26977;SDS011;56314;48.088;11.642;2024-01-16T10:53:33;7.32;;;3.03;;
26977;SDS011;56314;48.088;11.642;2024-01-16T10:56:00;5.45;;;2.58;;
26977;SDS011;56314;48.088;11.642;2024-01-16T10:58:27;5.30;;;2.97;;
26977;SDS011;56314;48.088;11.642;2024-01-16T11:00:57;4.78;;;2.75;;
26977;SDS011;56314;48.088;11.642;2024-01-16T11:03:33;3.97;;;3.05;;
26977;SDS011;56314;48.088;11.642;2024-01-16T11:06:02;5.13;;;2.58;;
26977;SDS011;56314;48.088;11.642;2024-01-16T11:08:31;4.75;;;2.92;;
26977;SDS011;56314;48.088;11.642;2024-01-16T11:11:01;3.60;;;2.28;;
26977;SDS011;56314;48.088;11.642;2024-01-16T11:13:28;4.53;;;2.60;;
26977;SDS011;56314;48.088;11.642;2024-01-16T11:15:59;4.78;;;2.65;;
26977;SDS011;56314;48.088;11.642;2024-01-16T11:18:24;3.83;;;2.10;;
26977;SDS011;56314;48.088;11.642;2024-01-16T11:20:51;5.00;;;2.40;;
26977;SDS011;56314;48.088;11.642;2024-01-16T11:23:19;5.18;;;2.53;;
26977;SDS011;56314;48.088;11.642;2024-01-16T11:25:44;5.80;;;3.33;;
26977;SDS011;56314;48.088;11.642;2024-01-16T11:28:13;4.63;;;2.92;;
26977;SDS011;56314;48.088;11.642;2024-01-16T11:30:39;5.18;;;2.47;;
26977;SDS011;56314;48.088;11.642;2024-01-16T11:33:06;7.57;;;2.50;;
26977;SDS011;56314;48.088;11.642;2024-01-16T11:35:35;3.03;;;1.80;;
26977;SDS011;56314;48.088;11.642;2024-01-16T11:38:10;9.90;;;2.42;;
26977;SDS011;56314;48.088;11.642;2024-01-16T11:40:41;4.30;;;2.22;;
26977;SDS011;56314;48.088;11.642;2024-01-16T11:45:57;3.75;;;1.88;;
26977;SDS011;56314;48.088;11.642;2024-01-16T11:48:25;4.65;;;2.17;;
26977;SDS011;56314;48.088;11.642;2024-01-16T11:50:51;4.28;;;1.70;;
26977;SDS011;56314;48.088;11.642;2024-01-16T11:58:48;3.92;;;1.63;;
26977;SDS011;56314;48.088;11.642;2024-01-16T12:01:18;3.70;;;1.90;;
26977;SDS011;56314;48.088;11.642;2024-01-16T12:04:01;4.18;;;2.28;;
26977;SDS011;56314;48.088;11.642;2024-01-16T12:06:34;4.57;;;1.83;;
26977;SDS011;56314;48.088;11.642;2024-01-16T12:09:10;3.15;;;2.05;;
26977;SDS011;56314;48.088;11.642;2024-01-16T12:11:38;6.03;;;1.92;;
26977;SDS011;56314;48.088;11.642;2024-01-16T12:14:03;3.53;;;1.52;;
26977;SDS011;56314;48.088;11.642;2024-01-16T12:16:29;2.85;;;1.75;;
26977;SDS011;56314;48.088;11.642;2024-01-16T12:19:04;2.90;;;1.60;;
26977;SDS011;56314;48.088;11.642;2024-01-16T12:21:30;4.10;;;1.63;;
26977;SDS011;56314;48.088;11.642;2024-01-16T12:23:58;3.78;;;1.70;;
26977;SDS011;56314;48.088;11.642;2024-01-16T12:26:24;2.97;;;1.73;;
26977;SDS011;56314;48.088;11.642;2024-01-16T12:28:52;3.38;;;1.90;;
26977;SDS011;56314;48.088;11.642;2024-01-16T12:31:18;1.70;;;1.60;;
26977;SDS011;56314;48.088;11.642;2024-01-16T12:33:44;6.07;;;1.50;;
26977;SDS011;56314;48.088;11.642;2024-01-16T12:36:09;6.93;;;2.15;;
26977;SDS011;56314;48.088;11.642;2024-01-16T12:38:35;4.00;;;1.58;;
26977;SDS011;56314;48.088;11.642;2024-01-16T12:41:01;3.70;;;1.52;;
26977;SDS011;56314;48.088;11.642;2024-01-16T12:43:31;4.30;;;1.77;;
26977;SDS011;56314;48.088;11.642;2024-01-16T12:45:58;4.70;;;1.80;;
26977;SDS011;56314;48.088;11.642;2024-01-16T12:48:24;2.70;;;1.30;;
26977;SDS011;56314;48.088;11.642;2024-01-16T12:50:50;5.95;;;1.77;;
26977;SDS011;56314;48.088;11.642;2024-01-16T12:53:16;4.15;;;2.67;;
26977;SDS011;56314;48.088;11.642;2024-01-16T12:55:44;4.20;;;1.60;;
26977;SDS011;56314;48.088;11.642;2024-01-16T13:00:42;4.07;;;1.63;;
26977;SDS011;56314;48.088;11.642;2024-01-16T13:03:21;5.75;;;2.08;;
26977;SDS011;56314;48.088;11.642;2024-01-16T13:05:54;4.70;;;1.75;;
26977;SDS011;56314;48.088;11.642;2024-01-16T13:08:21;3.35;;;1.73;;
26977;SDS011;56314;48.088;11.642;2024-01-16T13:10:51;5.15;;;1.75;;
26977;SDS011;56314;48.088;11.642;2024-01-16T13:13:28;2.22;;;1.60;;
26977;SDS011;56314;48.088;11.642;2024-01-16T13:15:53;4.60;;;2.05;;
26977;SDS011;56314;48.088;11.642;2024-01-16T13:18:22;3.42;;;1.55;;
26977;SDS011;56314;48.088;11.642;2024-01-16T13:20:50;4.18;;;1.67;;
26977;SDS011;56314;48.088;11.642;2024-01-16T13:23:16;6.80;;;2.90;;
26977;SDS011;56314;48.088;11.642;2024-01-16T13:25:42;3.75;;;1.63;;
26977;SDS011;56314;48.088;11.642;2024-01-16T13:28:15;2.65;;;1.55;;
26977;SDS011;56314;48.088;11.642;2024-01-16T13:30:42;3.13;;;1.88;;
26977;SDS011;56314;48.088;11.642;2024-01-16T13:33:08;3.67;;;1.52;;
26977;SDS011;56314;48.088;11.642;2024-01-16T13:35:44;3.42;;;1.70;;
26977;SDS011;56314;48.088;11.642;2024-01-16T13:38:14;2.25;;;1.85;;
26977;SDS011;56314;48.088;11.642;2024-01-16T13:40:44;5.85;;;2.17;;
26977;SDS011;56314;48.088;11.642;2024-01-16T13:43:09;3.00;;;1.90;;
26977;SDS011;56314;48.088;11.642;2024-01-16T13:45:36;4.47;;;1.80;;
26977;SDS011;56314;48.088;11.642;2024-01-16T13:48:02;4.22;;;2.25;;
26977;SDS011;56314;48.088;11.642;2024-01-16T13:50:30;7.53;;;2.53;;
26977;SDS011;56314;48.088;11.642;2024-01-16T13:52:56;5.35;;;2.53;;
26977;SDS011;56314;48.088;11.642;2024-01-16T13:55:22;3.65;;;1.90;;
26977;SDS011;56314;48.088;11.642;2024-01-16T13:57:47;2.45;;;1.60;;
26977;SDS011;56314;48.088;11.642;2024-01-16T14:00:13;4.00;;;2.25;;
26977;SDS011;56314;48.088;11.642;2024-01-16T14:02:40;4.93;;;1.98;;
26977;SDS011;56314;48.088;11.642;2024-01-16T14:05:10;3.45;;;2.38;;
26977;SDS011;56314;48.088;11.642;2024-01-16T14:07:37;2.15;;;1.65;;
26977;SDS011;56314;48.088;11.642;2024-01-16T14:10:04;4.65;;;2.70;;
26977;SDS011;56314;48.088;11.642;2024-01-16T14:12:31;5.70;;;3.03;;
26977;SDS011;56314;48.088;11.642;2024-01-16T14:14:56;4.32;;;2.15;;
26977;SDS011;56314;48.088;11.642;2024-01-16T14:17:22;5.28;;;2.53;;
26977;SDS011;56314;48.088;11.642;2024-01-16T14:19:47;4.82;;;2.53;;
26977;SDS011;56314;48.088;11.642;2024-01-16T14:22:13;3.92;;;2.38;;
26977;SDS011;56314;48.088;11.642;2024-01-16T14:24:38;3.38;;;2.28;;
26977;SDS011;56314;48.088;11.642;2024-01-16T14:27:03;4.40;;;2.10;;
26977;SDS011;56314;48.088;11.642;2024-01-16T14:29:29;5.53;;;2.30;;
26977;SDS011;56314;48.088;11.642;2024-01-16T14:31:55;4.32;;;2.65;;
26977;SDS011;56314;48.088;11.642;2024-01-16T14:34:21;5.35;;;2.60;;
26977;SDS011;56314;48.088;11.642;2024-01-16T14:36:48;5.30;;;2.47;;
26977;SDS011;56314;48.088;11.642;2024-01-16T14:39:13;6.22;;;2.33;;
26977;SDS011;56314;48.088;11.642;2024-01-16T14:41:42;6.68;;;2.40;;
26977;SDS011;56314;48.088;11.642;2024-01-16T14:44:08;4.63;;;2.35;;
26977;SDS011;56314;48.088;11.642;2024-01-16T14:46:34;4.30;;;2.30;;